createdAt,value
2023-01-05T00:02:07.019Z,57.97
2023-01-05T00:04:37.153Z,59.17
2023-01-05T00:07:07.180Z,58.92
2023-01-05T00:09:37.083Z,56.33
2023-01-05T00:12:21.020Z,56.30
2023-01-05T00:15:10.330Z,56.70
2023-01-05T00:17:50.514Z,59.90
2023-01-05T00:20:40.617Z,60.03
2023-01-05T00:23:11.829Z,59.35
2023-01-05T00:25:43.357Z,61.78
2023-01-05T00:28:13.337Z,60.40
2023-01-05T00:30:48.894Z,65.18
2023-01-05T00:33:20.332Z,67.43
2023-01-05T00:35:50.261Z,97.87
2023-01-05T00:38:20.144Z,84.17
2023-01-05T00:40:51.577Z,77.55
2023-01-05T00:43:21.436Z,81.70
2023-01-05T00:45:51.346Z,79.70
2023-01-05T00:48:21.360Z,81.73
2023-01-05T00:50:52.903Z,89.90
2023-01-05T00:53:22.851Z,96.25
2023-01-05T00:56:00.850Z,85.67
2023-01-05T00:58:30.872Z,99.90
2023-01-05T01:01:00.871Z,117.47
2023-01-05T01:03:31.458Z,132.07
2023-01-05T01:06:01.887Z,132.35
2023-01-05T01:08:31.909Z,128.65
2023-01-05T01:11:07.884Z,140.50
2023-01-05T01:13:37.886Z,153.67
2023-01-05T01:16:10.841Z,165.57
2023-01-05T01:18:41.728Z,173.47
2023-01-05T01:23:41.349Z,129.07
2023-01-05T01:26:13.727Z,128.13
2023-01-05T01:28:44.007Z,130.83
2023-01-05T01:31:14.061Z,123.72
2023-01-05T01:33:44.233Z,129.73
2023-01-05T01:36:14.312Z,121.00
2023-01-05T01:38:44.256Z,136.43
2023-01-05T01:41:15.623Z,176.07
2023-01-05T01:43:51.721Z,148.73
2023-01-05T01:46:23.365Z,142.60
2023-01-05T01:49:01.599Z,140.50
2023-01-05T01:51:43.312Z,146.20
2023-01-05T01:54:18.113Z,131.68
2023-01-05T01:56:57.502Z,132.80
2023-01-05T01:59:29.310Z,124.60
2023-01-05T02:02:02.875Z,114.32
2023-01-05T02:04:35.524Z,107.97
2023-01-05T02:07:06.628Z,105.20
2023-01-05T02:09:37.922Z,102.00
2023-01-05T02:12:29.556Z,94.43
2023-01-05T02:15:28.527Z,92.07
2023-01-05T02:18:18.382Z,89.20
2023-01-05T02:21:02.481Z,96.43
2023-01-05T02:24:05.599Z,91.20
2023-01-05T02:27:03.826Z,95.20
2023-01-05T02:30:02.340Z,105.00
2023-01-05T02:32:43.005Z,100.60
2023-01-05T02:35:45.357Z,103.03
2023-01-05T02:38:33.272Z,102.30
2023-01-05T02:41:27.648Z,99.55
2023-01-05T02:43:59.305Z,105.85
2023-01-05T02:46:29.301Z,108.30
2023-01-05T02:49:03.409Z,102.82
2023-01-05T02:51:39.721Z,110.70
